This is the latest recevied weather packets stored in our database for station/object EA1PVC-10. If no packets are shown the sender has not sent any weather packets the latest 10 day(s).
| Time | Temp. | Humidity | Pressure | Rain* | Wind** | Luminosity | Snow |
|---|---|---|---|---|---|---|---|
| 1777659080 | 22.78° C | 34% | 924.2 hPa | - | - | - | - |
| 1777658180 | 24.44° C | 32% | 924.3 hPa | - | - | - | - |
| 1777657280 | 32.22° C | 23% | 924.3 hPa | - | - | - | - |
| 1777656379 | 26.67° C | 27% | 924.7 hPa | - | - | - | - |
| 1777655468 | 33.89° C | 20% | 924.3 hPa | - | - | - | - |
| 1777654568 | 31.67° C | 21% | 924.2 hPa | - | - | - | - |
| 1777653668 | 36.11° C | 18% | 924.1 hPa | - | - | - | - |
| 1777652768 | 33.89° C | 20% | 924.3 hPa | - | - | - | - |
| 1777651868 | 38.89° C | 16% | 924.2 hPa | - | - | - | - |
| 1777650968 | 31.67° C | 21% | 925.4 hPa | - | - | - | - |
| 1777650068 | 36.11° C | 18% | 924.3 hPa | - | - | - | - |
| 1777648267 | 29.44° C | 23% | 921.5 hPa | - | - | - | - |
| 1777647368 | 30° C | 24% | 924.7 hPa | - | - | - | - |
| 1777646467 | 29.44° C | 27% | 924.8 hPa | - | - | - | - |
| 1777645567 | 25.56° C | 27% | 919 hPa | - | - | - | - |
| 1777644656 | 26.11° C | 31% | 925.1 hPa | - | - | - | - |
| 1777643756 | 25.56° C | 32% | 925.5 hPa | - | - | - | - |
| 1777642856 | 25.56° C | 33% | 925.2 hPa | - | - | - | - |
| 1777641956 | 24.44° C | 34% | 925.3 hPa | - | - | - | - |
| 1777641056 | 23.33° C | 36% | 925.3 hPa | - | - | - | - |
| 1777640156 | 22.78° C | 37% | 925.3 hPa | - | - | - | - |
| 1777639256 | 22.22° C | 38% | 925.3 hPa | - | - | - | - |
| 1777638356 | 21.67° C | 38% | 925.4 hPa | - | - | - | - |
| 1777637455 | 20.56° C | 43% | 925.5 hPa | - | - | - | - |
| 1777636555 | 21.11° C | 45% | 925.4 hPa | - | - | - | - |
* Rain since midnight (hover to see other rain measurements)
** Current wind speed in m/s (hover to see current wind gust speed)